sensor_id;sensor_type;location;lat;lon;timestamp;P1;durP1;ratioP1;P2;durP2;ratioP2
13720;SDS011;6932;51.438;5.470;2023-11-18T00:01:23;19.63;;;14.37;;
13720;SDS011;6932;51.438;5.470;2023-11-18T00:03:49;20.17;;;14.07;;
13720;SDS011;6932;51.438;5.470;2023-11-18T00:06:15;17.40;;;12.67;;
13720;SDS011;6932;51.438;5.470;2023-11-18T00:08:41;18.97;;;13.50;;
13720;SDS011;6932;51.438;5.470;2023-11-18T00:11:08;18.80;;;13.80;;
13720;SDS011;6932;51.438;5.470;2023-11-18T00:13:36;18.87;;;13.50;;
13720;SDS011;6932;51.438;5.470;2023-11-18T00:16:07;19.17;;;13.00;;
13720;SDS011;6932;51.438;5.470;2023-11-18T00:18:37;19.80;;;13.07;;
13720;SDS011;6932;51.438;5.470;2023-11-18T00:21:04;18.87;;;13.30;;
13720;SDS011;6932;51.438;5.470;2023-11-18T00:23:31;20.93;;;14.00;;
13720;SDS011;6932;51.438;5.470;2023-11-18T00:25:57;18.07;;;13.47;;
13720;SDS011;6932;51.438;5.470;2023-11-18T00:28:22;19.33;;;13.30;;
13720;SDS011;6932;51.438;5.470;2023-11-18T00:30:48;18.33;;;12.80;;
13720;SDS011;6932;51.438;5.470;2023-11-18T00:33:14;19.50;;;13.30;;
13720;SDS011;6932;51.438;5.470;2023-11-18T00:35:40;20.37;;;13.23;;
13720;SDS011;6932;51.438;5.470;2023-11-18T00:38:06;19.97;;;14.10;;
13720;SDS011;6932;51.438;5.470;2023-11-18T00:40:31;19.57;;;13.90;;
13720;SDS011;6932;51.438;5.470;2023-11-18T00:42:58;20.47;;;14.00;;
13720;SDS011;6932;51.438;5.470;2023-11-18T00:45:24;17.90;;;12.93;;
13720;SDS011;6932;51.438;5.470;2023-11-18T00:47:49;18.93;;;13.50;;
13720;SDS011;6932;51.438;5.470;2023-11-18T00:50:15;19.17;;;13.77;;
13720;SDS011;6932;51.438;5.470;2023-11-18T00:52:42;19.63;;;13.93;;
13720;SDS011;6932;51.438;5.470;2023-11-18T00:55:08;18.83;;;13.37;;
13720;SDS011;6932;51.438;5.470;2023-11-18T00:57:36;18.87;;;13.70;;
13720;SDS011;6932;51.438;5.470;2023-11-18T01:00:04;19.63;;;13.60;;
13720;SDS011;6932;51.438;5.470;2023-11-18T01:02:38;17.93;;;13.40;;
13720;SDS011;6932;51.438;5.470;2023-11-18T01:05:08;20.70;;;14.00;;
13720;SDS011;6932;51.438;5.470;2023-11-18T01:07:35;19.70;;;14.03;;
13720;SDS011;6932;51.438;5.470;2023-11-18T01:10:03;20.33;;;13.30;;
13720;SDS011;6932;51.438;5.470;2023-11-18T01:12:31;20.30;;;13.23;;
13720;SDS011;6932;51.438;5.470;2023-11-18T01:14:56;18.37;;;13.17;;
13720;SDS011;6932;51.438;5.470;2023-11-18T01:17:22;18.77;;;13.50;;
13720;SDS011;6932;51.438;5.470;2023-11-18T01:19:49;19.20;;;13.73;;
13720;SDS011;6932;51.438;5.470;2023-11-18T01:22:15;18.83;;;13.53;;
13720;SDS011;6932;51.438;5.470;2023-11-18T01:24:43;19.50;;;13.30;;
13720;SDS011;6932;51.438;5.470;2023-11-18T01:27:09;19.00;;;13.20;;
13720;SDS011;6932;51.438;5.470;2023-11-18T01:29:36;19.10;;;13.43;;
13720;SDS011;6932;51.438;5.470;2023-11-18T01:32:02;20.10;;;13.50;;
13720;SDS011;6932;51.438;5.470;2023-11-18T01:34:37;17.70;;;12.87;;
13720;SDS011;6932;51.438;5.470;2023-11-18T01:37:08;18.73;;;13.50;;
13720;SDS011;6932;51.438;5.470;2023-11-18T01:39:34;19.23;;;13.10;;
13720;SDS011;6932;51.438;5.470;2023-11-18T01:42:01;18.80;;;13.90;;
13720;SDS011;6932;51.438;5.470;2023-11-18T01:44:30;17.93;;;13.00;;
13720;SDS011;6932;51.438;5.470;2023-11-18T01:46:56;18.90;;;13.17;;
13720;SDS011;6932;51.438;5.470;2023-11-18T01:49:23;18.00;;;12.93;;
13720;SDS011;6932;51.438;5.470;2023-11-18T01:51:52;18.17;;;13.40;;
13720;SDS011;6932;51.438;5.470;2023-11-18T01:54:18;21.43;;;14.20;;
13720;SDS011;6932;51.438;5.470;2023-11-18T01:56:50;18.50;;;13.87;;
13720;SDS011;6932;51.438;5.470;2023-11-18T01:59:17;19.67;;;13.60;;
13720;SDS011;6932;51.438;5.470;2023-11-18T02:01:47;19.07;;;13.23;;
13720;SDS011;6932;51.438;5.470;2023-11-18T02:04:16;18.70;;;13.03;;
13720;SDS011;6932;51.438;5.470;2023-11-18T02:06:44;17.43;;;13.33;;
13720;SDS011;6932;51.438;5.470;2023-11-18T02:09:13;19.53;;;13.83;;
13720;SDS011;6932;51.438;5.470;2023-11-18T02:11:52;18.10;;;12.83;;
13720;SDS011;6932;51.438;5.470;2023-11-18T02:14:31;19.60;;;13.20;;
13720;SDS011;6932;51.438;5.470;2023-11-18T02:16:59;18.77;;;12.60;;
13720;SDS011;6932;51.438;5.470;2023-11-18T02:19:28;18.40;;;13.40;;
13720;SDS011;6932;51.438;5.470;2023-11-18T02:21:55;18.20;;;13.33;;
13720;SDS011;6932;51.438;5.470;2023-11-18T02:24:28;19.60;;;13.07;;
13720;SDS011;6932;51.438;5.470;2023-11-18T02:26:58;17.70;;;13.00;;
13720;SDS011;6932;51.438;5.470;2023-11-18T02:29:25;18.10;;;12.80;;
13720;SDS011;6932;51.438;5.470;2023-11-18T02:31:58;18.47;;;12.63;;
13720;SDS011;6932;51.438;5.470;2023-11-18T02:34:36;21.27;;;13.10;;
13720;SDS011;6932;51.438;5.470;2023-11-18T02:37:13;17.13;;;12.40;;
13720;SDS011;6932;51.438;5.470;2023-11-18T02:39:45;18.00;;;12.93;;
13720;SDS011;6932;51.438;5.470;2023-11-18T02:42:22;16.80;;;12.00;;
13720;SDS011;6932;51.438;5.470;2023-11-18T02:44:49;16.83;;;12.40;;
13720;SDS011;6932;51.438;5.470;2023-11-18T02:47:24;18.67;;;12.87;;
13720;SDS011;6932;51.438;5.470;2023-11-18T02:49:55;18.00;;;12.97;;
13720;SDS011;6932;51.438;5.470;2023-11-18T02:52:39;17.73;;;12.57;;
13720;SDS011;6932;51.438;5.470;2023-11-18T02:55:06;17.40;;;13.00;;
13720;SDS011;6932;51.438;5.470;2023-11-18T02:57:33;18.40;;;12.97;;
13720;SDS011;6932;51.438;5.470;2023-11-18T03:00:00;17.70;;;13.07;;
13720;SDS011;6932;51.438;5.470;2023-11-18T03:02:26;17.77;;;12.67;;
13720;SDS011;6932;51.438;5.470;2023-11-18T03:04:56;16.87;;;11.83;;
13720;SDS011;6932;51.438;5.470;2023-11-18T03:07:22;19.47;;;12.33;;
13720;SDS011;6932;51.438;5.470;2023-11-18T03:09:48;16.47;;;11.90;;
13720;SDS011;6932;51.438;5.470;2023-11-18T03:12:14;18.13;;;11.93;;
13720;SDS011;6932;51.438;5.470;2023-11-18T03:14:41;16.77;;;12.33;;
13720;SDS011;6932;51.438;5.470;2023-11-18T03:17:07;16.70;;;12.20;;
13720;SDS011;6932;51.438;5.470;2023-11-18T03:19:34;17.40;;;12.47;;
13720;SDS011;6932;51.438;5.470;2023-11-18T03:22:01;16.80;;;12.03;;
13720;SDS011;6932;51.438;5.470;2023-11-18T03:24:28;19.00;;;12.37;;
13720;SDS011;6932;51.438;5.470;2023-11-18T03:26:54;16.60;;;11.93;;
13720;SDS011;6932;51.438;5.470;2023-11-18T03:29:20;16.97;;;12.00;;
13720;SDS011;6932;51.438;5.470;2023-11-18T03:31:46;17.23;;;11.53;;
13720;SDS011;6932;51.438;5.470;2023-11-18T03:34:14;17.23;;;11.63;;
13720;SDS011;6932;51.438;5.470;2023-11-18T03:36:41;16.97;;;11.37;;
13720;SDS011;6932;51.438;5.470;2023-11-18T03:39:07;16.27;;;11.17;;
13720;SDS011;6932;51.438;5.470;2023-11-18T03:41:35;17.30;;;11.70;;
13720;SDS011;6932;51.438;5.470;2023-11-18T03:44:02;17.27;;;11.97;;
13720;SDS011;6932;51.438;5.470;2023-11-18T03:46:29;17.50;;;12.03;;
13720;SDS011;6932;51.438;5.470;2023-11-18T03:48:59;16.67;;;12.10;;
13720;SDS011;6932;51.438;5.470;2023-11-18T03:51:26;16.90;;;11.20;;
13720;SDS011;6932;51.438;5.470;2023-11-18T03:53:53;15.97;;;11.37;;
13720;SDS011;6932;51.438;5.470;2023-11-18T03:56:19;16.43;;;11.10;;
13720;SDS011;6932;51.438;5.470;2023-11-18T03:58:45;17.00;;;11.53;;
13720;SDS011;6932;51.438;5.470;2023-11-18T04:01:20;17.90;;;11.80;;
13720;SDS011;6932;51.438;5.470;2023-11-18T04:03:52;16.23;;;11.60;;
13720;SDS011;6932;51.438;5.470;2023-11-18T04:06:19;17.53;;;11.77;;
13720;SDS011;6932;51.438;5.470;2023-11-18T04:08:47;17.43;;;11.10;;
13720;SDS011;6932;51.438;5.470;2023-11-18T04:11:13;15.10;;;10.90;;
13720;SDS011;6932;51.438;5.470;2023-11-18T04:13:40;16.30;;;11.47;;
13720;SDS011;6932;51.438;5.470;2023-11-18T04:16:11;16.40;;;11.13;;
13720;SDS011;6932;51.438;5.470;2023-11-18T04:18:40;16.70;;;10.73;;
13720;SDS011;6932;51.438;5.470;2023-11-18T04:21:10;15.33;;;10.57;;
13720;SDS011;6932;51.438;5.470;2023-11-18T04:23:38;16.77;;;10.63;;
13720;SDS011;6932;51.438;5.470;2023-11-18T04:26:06;16.27;;;10.73;;
13720;SDS011;6932;51.438;5.470;2023-11-18T04:28:33;15.43;;;10.17;;
13720;SDS011;6932;51.438;5.470;2023-11-18T04:31:00;17.03;;;11.80;;
13720;SDS011;6932;51.438;5.470;2023-11-18T04:33:27;18.00;;;10.93;;
13720;SDS011;6932;51.438;5.470;2023-11-18T04:35:54;15.83;;;10.30;;
13720;SDS011;6932;51.438;5.470;2023-11-18T04:38:23;17.40;;;11.13;;
13720;SDS011;6932;51.438;5.470;2023-11-18T04:40:50;15.77;;;10.37;;
13720;SDS011;6932;51.438;5.470;2023-11-18T04:43:20;15.97;;;10.90;;
13720;SDS011;6932;51.438;5.470;2023-11-18T04:45:47;15.57;;;10.10;;
13720;SDS011;6932;51.438;5.470;2023-11-18T04:48:13;15.90;;;10.10;;
13720;SDS011;6932;51.438;5.470;2023-11-18T04:50:39;16.47;;;9.90;;
13720;SDS011;6932;51.438;5.470;2023-11-18T04:53:06;16.20;;;10.20;;
13720;SDS011;6932;51.438;5.470;2023-11-18T04:55:36;16.60;;;10.43;;
13720;SDS011;6932;51.438;5.470;2023-11-18T04:58:02;16.37;;;9.90;;
13720;SDS011;6932;51.438;5.470;2023-11-18T05:00:30;14.17;;;9.73;;
13720;SDS011;6932;51.438;5.470;2023-11-18T05:02:59;15.23;;;9.67;;
13720;SDS011;6932;51.438;5.470;2023-11-18T05:05:25;13.97;;;9.53;;
13720;SDS011;6932;51.438;5.470;2023-11-18T05:07:51;16.47;;;10.07;;
13720;SDS011;6932;51.438;5.470;2023-11-18T05:10:17;15.93;;;9.53;;
13720;SDS011;6932;51.438;5.470;2023-11-18T05:12:43;13.53;;;9.17;;
13720;SDS011;6932;51.438;5.470;2023-11-18T05:15:09;13.83;;;9.10;;
13720;SDS011;6932;51.438;5.470;2023-11-18T05:17:35;14.40;;;9.13;;
13720;SDS011;6932;51.438;5.470;2023-11-18T05:20:02;13.80;;;9.00;;
13720;SDS011;6932;51.438;5.470;2023-11-18T05:22:29;13.50;;;8.90;;
13720;SDS011;6932;51.438;5.470;2023-11-18T05:24:55;14.53;;;9.00;;
13720;SDS011;6932;51.438;5.470;2023-11-18T05:27:22;16.50;;;9.00;;
13720;SDS011;6932;51.438;5.470;2023-11-18T05:29:48;13.63;;;8.40;;
13720;SDS011;6932;51.438;5.470;2023-11-18T05:32:19;14.47;;;8.57;;
13720;SDS011;6932;51.438;5.470;2023-11-18T05:34:50;15.13;;;8.43;;
13720;SDS011;6932;51.438;5.470;2023-11-18T05:37:19;12.83;;;8.50;;
13720;SDS011;6932;51.438;5.470;2023-11-18T05:39:48;13.77;;;8.70;;
13720;SDS011;6932;51.438;5.470;2023-11-18T05:42:18;12.37;;;8.33;;
13720;SDS011;6932;51.438;5.470;2023-11-18T05:44:44;12.70;;;8.30;;
13720;SDS011;6932;51.438;5.470;2023-11-18T05:47:10;12.67;;;8.10;;
13720;SDS011;6932;51.438;5.470;2023-11-18T05:49:38;14.13;;;8.43;;
13720;SDS011;6932;51.438;5.470;2023-11-18T05:52:04;13.27;;;8.77;;
13720;SDS011;6932;51.438;5.470;2023-11-18T05:54:31;12.43;;;8.27;;
13720;SDS011;6932;51.438;5.470;2023-11-18T05:56:57;12.80;;;8.10;;
13720;SDS011;6932;51.438;5.470;2023-11-18T05:59:24;12.23;;;7.93;;
13720;SDS011;6932;51.438;5.470;2023-11-18T06:01:51;13.30;;;8.37;;
13720;SDS011;6932;51.438;5.470;2023-11-18T06:04:18;12.87;;;7.37;;
13720;SDS011;6932;51.438;5.470;2023-11-18T06:06:44;14.00;;;8.70;;
13720;SDS011;6932;51.438;5.470;2023-11-18T06:09:09;13.03;;;8.07;;
13720;SDS011;6932;51.438;5.470;2023-11-18T06:11:43;12.00;;;7.43;;
13720;SDS011;6932;51.438;5.470;2023-11-18T06:14:10;13.43;;;7.83;;
13720;SDS011;6932;51.438;5.470;2023-11-18T06:16:37;11.50;;;7.80;;
13720;SDS011;6932;51.438;5.470;2023-11-18T06:19:05;13.43;;;7.80;;
13720;SDS011;6932;51.438;5.470;2023-11-18T06:21:31;11.87;;;7.53;;
13720;SDS011;6932;51.438;5.470;2023-11-18T06:23:58;11.27;;;7.47;;
13720;SDS011;6932;51.438;5.470;2023-11-18T06:26:25;11.90;;;7.53;;
13720;SDS011;6932;51.438;5.470;2023-11-18T06:28:52;11.20;;;7.30;;
13720;SDS011;6932;51.438;5.470;2023-11-18T06:31:20;11.67;;;7.40;;
13720;SDS011;6932;51.438;5.470;2023-11-18T06:33:46;11.17;;;7.10;;
13720;SDS011;6932;51.438;5.470;2023-11-18T06:38:42;12.10;;;6.80;;
13720;SDS011;6932;51.438;5.470;2023-11-18T06:41:12;18.60;;;7.10;;
13720;SDS011;6932;51.438;5.470;2023-11-18T06:43:40;10.83;;;7.00;;
13720;SDS011;6932;51.438;5.470;2023-11-18T06:46:21;12.00;;;6.80;;
13720;SDS011;6932;51.438;5.470;2023-11-18T06:48:58;13.73;;;6.97;;
13720;SDS011;6932;51.438;5.470;2023-11-18T06:51:32;10.47;;;6.03;;
13720;SDS011;6932;51.438;5.470;2023-11-18T06:54:02;13.30;;;6.70;;
13720;SDS011;6932;51.438;5.470;2023-11-18T06:56:38;10.53;;;5.90;;
13720;SDS011;6932;51.438;5.470;2023-11-18T06:59:09;10.47;;;6.13;;
13720;SDS011;6932;51.438;5.470;2023-11-18T07:01:39;10.60;;;6.43;;
13720;SDS011;6932;51.438;5.470;2023-11-18T07:04:07;10.80;;;6.20;;
13720;SDS011;6932;51.438;5.470;2023-11-18T07:06:33;11.47;;;6.20;;
13720;SDS011;6932;51.438;5.470;2023-11-18T07:09:03;9.40;;;5.43;;
13720;SDS011;6932;51.438;5.470;2023-11-18T07:11:37;12.87;;;5.70;;
13720;SDS011;6932;51.438;5.470;2023-11-18T07:14:04;10.13;;;5.93;;
13720;SDS011;6932;51.438;5.470;2023-11-18T07:16:30;11.23;;;5.57;;
13720;SDS011;6932;51.438;5.470;2023-11-18T07:18:55;8.40;;;5.53;;
13720;SDS011;6932;51.438;5.470;2023-11-18T07:21:22;9.27;;;5.43;;
13720;SDS011;6932;51.438;5.470;2023-11-18T07:23:47;8.47;;;5.27;;
13720;SDS011;6932;51.438;5.470;2023-11-18T07:26:13;8.37;;;4.77;;
13720;SDS011;6932;51.438;5.470;2023-11-18T07:28:39;7.13;;;4.70;;
13720;SDS011;6932;51.438;5.470;2023-11-18T07:31:05;9.53;;;5.47;;
13720;SDS011;6932;51.438;5.470;2023-11-18T07:33:32;11.33;;;5.03;;
13720;SDS011;6932;51.438;5.470;2023-11-18T07:35:58;8.30;;;4.53;;
13720;SDS011;6932;51.438;5.470;2023-11-18T07:38:24;8.30;;;4.60;;
13720;SDS011;6932;51.438;5.470;2023-11-18T07:40:52;8.63;;;4.40;;
13720;SDS011;6932;51.438;5.470;2023-11-18T07:43:21;7.73;;;4.23;;
13720;SDS011;6932;51.438;5.470;2023-11-18T07:45:48;6.50;;;4.20;;
13720;SDS011;6932;51.438;5.470;2023-11-18T07:48:17;7.33;;;4.43;;
13720;SDS011;6932;51.438;5.470;2023-11-18T07:50:43;6.60;;;4.20;;
13720;SDS011;6932;51.438;5.470;2023-11-18T07:53:10;7.80;;;4.47;;
13720;SDS011;6932;51.438;5.470;2023-11-18T07:55:36;8.53;;;4.37;;
13720;SDS011;6932;51.438;5.470;2023-11-18T07:58:08;9.43;;;4.50;;
13720;SDS011;6932;51.438;5.470;2023-11-18T08:00:38;9.63;;;4.17;;
13720;SDS011;6932;51.438;5.470;2023-11-18T08:03:06;6.63;;;4.10;;
13720;SDS011;6932;51.438;5.470;2023-11-18T08:05:37;7.77;;;4.30;;
13720;SDS011;6932;51.438;5.470;2023-11-18T08:08:05;7.40;;;3.87;;
13720;SDS011;6932;51.438;5.470;2023-11-18T08:10:32;8.57;;;4.33;;
13720;SDS011;6932;51.438;5.470;2023-11-18T08:13:02;7.37;;;4.00;;
13720;SDS011;6932;51.438;5.470;2023-11-18T08:15:38;7.83;;;3.90;;
13720;SDS011;6932;51.438;5.470;2023-11-18T08:18:05;7.83;;;4.20;;
13720;SDS011;6932;51.438;5.470;2023-11-18T08:20:32;7.03;;;3.80;;
13720;SDS011;6932;51.438;5.470;2023-11-18T08:22:57;7.93;;;4.10;;
13720;SDS011;6932;51.438;5.470;2023-11-18T08:25:24;7.03;;;3.90;;
13720;SDS011;6932;51.438;5.470;2023-11-18T08:27:51;6.83;;;4.00;;
13720;SDS011;6932;51.438;5.470;2023-11-18T08:30:17;7.53;;;4.00;;
13720;SDS011;6932;51.438;5.470;2023-11-18T08:32:43;7.30;;;3.77;;
13720;SDS011;6932;51.438;5.470;2023-11-18T08:35:11;7.23;;;4.00;;
13720;SDS011;6932;51.438;5.470;2023-11-18T08:37:41;8.20;;;4.10;;
13720;SDS011;6932;51.438;5.470;2023-11-18T08:40:08;7.47;;;4.20;;
13720;SDS011;6932;51.438;5.470;2023-11-18T08:42:47;7.07;;;3.90;;
13720;SDS011;6932;51.438;5.470;2023-11-18T08:45:22;7.93;;;4.20;;
13720;SDS011;6932;51.438;5.470;2023-11-18T08:47:57;7.23;;;3.77;;
13720;SDS011;6932;51.438;5.470;2023-11-18T08:50:33;7.53;;;4.00;;
13720;SDS011;6932;51.438;5.470;2023-11-18T08:53:01;7.47;;;3.80;;
13720;SDS011;6932;51.438;5.470;2023-11-18T08:55:30;6.77;;;3.63;;
13720;SDS011;6932;51.438;5.470;2023-11-18T09:01:09;8.63;;;3.90;;
13720;SDS011;6932;51.438;5.470;2023-11-18T09:03:38;8.10;;;4.00;;
13720;SDS011;6932;51.438;5.470;2023-11-18T09:06:17;7.80;;;4.10;;
13720;SDS011;6932;51.438;5.470;2023-11-18T09:08:46;6.43;;;3.63;;
13720;SDS011;6932;51.438;5.470;2023-11-18T09:11:17;8.73;;;3.90;;
13720;SDS011;6932;51.438;5.470;2023-11-18T09:13:45;7.00;;;3.70;;
13720;SDS011;6932;51.438;5.470;2023-11-18T09:16:14;8.23;;;3.83;;
13720;SDS011;6932;51.438;5.470;2023-11-18T09:18:41;5.93;;;3.87;;
13720;SDS011;6932;51.438;5.470;2023-11-18T09:21:12;7.00;;;3.50;;
13720;SDS011;6932;51.438;5.470;2023-11-18T09:23:44;8.97;;;3.90;;
13720;SDS011;6932;51.438;5.470;2023-11-18T09:26:12;6.80;;;3.70;;
13720;SDS011;6932;51.438;5.470;2023-11-18T09:28:39;6.50;;;3.80;;
13720;SDS011;6932;51.438;5.470;2023-11-18T09:31:06;7.83;;;3.73;;
13720;SDS011;6932;51.438;5.470;2023-11-18T09:33:36;5.70;;;3.47;;
13720;SDS011;6932;51.438;5.470;2023-11-18T09:36:07;7.77;;;3.97;;
13720;SDS011;6932;51.438;5.470;2023-11-18T09:38:38;6.83;;;3.60;;
13720;SDS011;6932;51.438;5.470;2023-11-18T09:41:06;6.23;;;3.67;;
13720;SDS011;6932;51.438;5.470;2023-11-18T09:43:37;7.40;;;3.50;;
13720;SDS011;6932;51.438;5.470;2023-11-18T09:46:14;6.57;;;3.60;;
13720;SDS011;6932;51.438;5.470;2023-11-18T09:48:52;8.33;;;3.53;;
13720;SDS011;6932;51.438;5.470;2023-11-18T09:51:58;7.17;;;3.60;;
13720;SDS011;6932;51.438;5.470;2023-11-18T09:54:31;6.00;;;3.53;;
13720;SDS011;6932;51.438;5.470;2023-11-18T09:57:16;9.00;;;3.70;;
13720;SDS011;6932;51.438;5.470;2023-11-18T10:02:50;5.07;;;3.17;;
13720;SDS011;6932;51.438;5.470;2023-11-18T10:05:16;8.53;;;3.27;;
13720;SDS011;6932;51.438;5.470;2023-11-18T10:07:49;7.07;;;3.03;;
13720;SDS011;6932;51.438;5.470;2023-11-18T10:10:16;6.33;;;3.10;;
13720;SDS011;6932;51.438;5.470;2023-11-18T10:12:42;5.83;;;3.23;;
13720;SDS011;6932;51.438;5.470;2023-11-18T10:15:17;6.67;;;2.60;;
13720;SDS011;6932;51.438;5.470;2023-11-18T10:17:48;6.07;;;2.90;;
13720;SDS011;6932;51.438;5.470;2023-11-18T10:20:46;6.43;;;2.80;;
13720;SDS011;6932;51.438;5.470;2023-11-18T10:23:13;5.90;;;2.70;;
13720;SDS011;6932;51.438;5.470;2023-11-18T10:25:53;6.47;;;2.80;;
13720;SDS011;6932;51.438;5.470;2023-11-18T10:31:02;7.23;;;2.80;;
13720;SDS011;6932;51.438;5.470;2023-11-18T10:33:40;4.87;;;2.70;;
13720;SDS011;6932;51.438;5.470;2023-11-18T10:36:17;6.80;;;2.90;;
13720;SDS011;6932;51.438;5.470;2023-11-18T10:38:48;8.63;;;3.27;;
13720;SDS011;6932;51.438;5.470;2023-11-18T10:41:17;6.43;;;2.80;;
13720;SDS011;6932;51.438;5.470;2023-11-18T10:43:44;5.60;;;2.87;;
13720;SDS011;6932;51.438;5.470;2023-11-18T10:46:11;6.40;;;3.40;;
13720;SDS011;6932;51.438;5.470;2023-11-18T10:48:42;5.93;;;2.93;;
13720;SDS011;6932;51.438;5.470;2023-11-18T10:51:13;6.53;;;2.90;;
13720;SDS011;6932;51.438;5.470;2023-11-18T10:53:42;7.53;;;2.90;;
13720;SDS011;6932;51.438;5.470;2023-11-18T10:56:26;7.27;;;2.90;;
13720;SDS011;6932;51.438;5.470;2023-11-18T10:58:55;5.03;;;2.73;;
13720;SDS011;6932;51.438;5.470;2023-11-18T11:03:57;5.53;;;2.80;;
13720;SDS011;6932;51.438;5.470;2023-11-18T11:06:26;5.17;;;2.47;;
13720;SDS011;6932;51.438;5.470;2023-11-18T11:08:56;7.03;;;3.00;;
13720;SDS011;6932;51.438;5.470;2023-11-18T11:11:26;6.17;;;2.70;;
13720;SDS011;6932;51.438;5.470;2023-11-18T11:14:05;5.57;;;2.60;;
13720;SDS011;6932;51.438;5.470;2023-11-18T11:16:40;5.20;;;2.83;;
13720;SDS011;6932;51.438;5.470;2023-11-18T11:19:09;5.73;;;2.60;;
13720;SDS011;6932;51.438;5.470;2023-11-18T11:21:50;7.17;;;2.77;;
13720;SDS011;6932;51.438;5.470;2023-11-18T11:30:46;7.33;;;2.87;;
13720;SDS011;6932;51.438;5.470;2023-11-18T11:33:57;6.93;;;2.43;;
13720;SDS011;6932;51.438;5.470;2023-11-18T11:36:29;7.00;;;2.70;;
13720;SDS011;6932;51.438;5.470;2023-11-18T11:39:04;4.80;;;2.63;;
13720;SDS011;6932;51.438;5.470;2023-11-18T11:41:35;6.10;;;2.60;;
13720;SDS011;6932;51.438;5.470;2023-11-18T11:44:02;7.53;;;2.73;;
13720;SDS011;6932;51.438;5.470;2023-11-18T11:46:31;4.63;;;2.13;;
13720;SDS011;6932;51.438;5.470;2023-11-18T11:49:00;6.20;;;2.63;;
13720;SDS011;6932;51.438;5.470;2023-11-18T11:51:40;6.77;;;3.43;;
13720;SDS011;6932;51.438;5.470;2023-11-18T11:54:38;6.20;;;2.60;;
13720;SDS011;6932;51.438;5.470;2023-11-18T11:57:10;10.97;;;7.17;;
13720;SDS011;6932;51.438;5.470;2023-11-18T12:02:12;5.80;;;2.53;;
13720;SDS011;6932;51.438;5.470;2023-11-18T12:04:59;3.93;;;1.80;;
13720;SDS011;6932;51.438;5.470;2023-11-18T12:07:31;3.70;;;2.20;;
13720;SDS011;6932;51.438;5.470;2023-11-18T12:10:05;4.40;;;2.10;;
13720;SDS011;6932;51.438;5.470;2023-11-18T12:12:38;2.70;;;1.60;;
13720;SDS011;6932;51.438;5.470;2023-11-18T12:15:06;6.33;;;1.90;;
13720;SDS011;6932;51.438;5.470;2023-11-18T12:20:39;3.57;;;1.90;;
13720;SDS011;6932;51.438;5.470;2023-11-18T12:23:16;4.33;;;1.80;;
13720;SDS011;6932;51.438;5.470;2023-11-18T12:25:46;3.47;;;1.97;;
13720;SDS011;6932;51.438;5.470;2023-11-18T12:28:19;3.90;;;1.90;;
13720;SDS011;6932;51.438;5.470;2023-11-18T12:31:03;5.97;;;2.00;;
13720;SDS011;6932;51.438;5.470;2023-11-18T12:42:08;4.57;;;2.20;;
13720;SDS011;6932;51.438;5.470;2023-11-18T12:47:49;3.60;;;1.97;;
13720;SDS011;6932;51.438;5.470;2023-11-18T12:50:20;4.17;;;1.87;;
13720;SDS011;6932;51.438;5.470;2023-11-18T12:52:53;4.03;;;2.07;;
13720;SDS011;6932;51.438;5.470;2023-11-18T12:55:22;5.50;;;2.10;;
13720;SDS011;6932;51.438;5.470;2023-11-18T12:57:48;4.73;;;1.93;;
13720;SDS011;6932;51.438;5.470;2023-11-18T13:00:16;3.20;;;1.80;;
13720;SDS011;6932;51.438;5.470;2023-11-18T13:02:52;4.17;;;1.80;;
13720;SDS011;6932;51.438;5.470;2023-11-18T13:05:19;3.63;;;1.90;;
13720;SDS011;6932;51.438;5.470;2023-11-18T13:07:45;2.83;;;1.80;;
13720;SDS011;6932;51.438;5.470;2023-11-18T13:10:12;4.33;;;1.70;;
13720;SDS011;6932;51.438;5.470;2023-11-18T13:12:41;3.03;;;2.00;;
13720;SDS011;6932;51.438;5.470;2023-11-18T13:15:08;4.00;;;2.07;;
13720;SDS011;6932;51.438;5.470;2023-11-18T13:17:34;3.00;;;1.87;;
13720;SDS011;6932;51.438;5.470;2023-11-18T13:20:12;3.57;;;1.90;;
13720;SDS011;6932;51.438;5.470;2023-11-18T13:22:41;3.20;;;1.83;;
13720;SDS011;6932;51.438;5.470;2023-11-18T13:25:08;3.03;;;1.80;;
13720;SDS011;6932;51.438;5.470;2023-11-18T13:27:34;2.80;;;1.77;;
13720;SDS011;6932;51.438;5.470;2023-11-18T13:30:01;3.40;;;1.83;;
13720;SDS011;6932;51.438;5.470;2023-11-18T13:32:28;2.67;;;1.50;;
13720;SDS011;6932;51.438;5.470;2023-11-18T13:34:54;3.63;;;1.93;;
13720;SDS011;6932;51.438;5.470;2023-11-18T13:37:20;2.50;;;1.60;;
13720;SDS011;6932;51.438;5.470;2023-11-18T13:39:56;4.67;;;2.20;;
13720;SDS011;6932;51.438;5.470;2023-11-18T13:42:26;3.83;;;2.10;;
13720;SDS011;6932;51.438;5.470;2023-11-18T13:44:59;3.70;;;2.03;;
13720;SDS011;6932;51.438;5.470;2023-11-18T13:47:33;1.73;;;1.47;;
13720;SDS011;6932;51.438;5.470;2023-11-18T13:49:58;2.60;;;1.47;;
13720;SDS011;6932;51.438;5.470;2023-11-18T13:52:24;2.87;;;1.60;;
13720;SDS011;6932;51.438;5.470;2023-11-18T13:54:50;2.57;;;2.00;;
13720;SDS011;6932;51.438;5.470;2023-11-18T13:57:22;3.70;;;1.90;;
13720;SDS011;6932;51.438;5.470;2023-11-18T13:59:49;1.93;;;1.60;;
13720;SDS011;6932;51.438;5.470;2023-11-18T14:02:15;2.37;;;1.53;;
13720;SDS011;6932;51.438;5.470;2023-11-18T14:04:41;1.60;;;1.50;;
13720;SDS011;6932;51.438;5.470;2023-11-18T14:07:09;1.87;;;1.30;;
13720;SDS011;6932;51.438;5.470;2023-11-18T14:09:41;1.60;;;1.23;;
13720;SDS011;6932;51.438;5.470;2023-11-18T14:12:09;1.47;;;1.10;;
13720;SDS011;6932;51.438;5.470;2023-11-18T14:14:36;1.60;;;1.17;;
13720;SDS011;6932;51.438;5.470;2023-11-18T14:17:03;1.70;;;1.50;;
13720;SDS011;6932;51.438;5.470;2023-11-18T14:19:31;1.43;;;1.30;;
13720;SDS011;6932;51.438;5.470;2023-11-18T14:22:00;1.10;;;1.00;;
13720;SDS011;6932;51.438;5.470;2023-11-18T14:24:25;1.53;;;1.17;;
13720;SDS011;6932;51.438;5.470;2023-11-18T14:26:52;1.37;;;1.00;;
13720;SDS011;6932;51.438;5.470;2023-11-18T14:29:19;1.10;;;0.90;;
13720;SDS011;6932;51.438;5.470;2023-11-18T14:31:45;1.10;;;1.00;;
13720;SDS011;6932;51.438;5.470;2023-11-18T14:34:11;1.30;;;0.90;;
13720;SDS011;6932;51.438;5.470;2023-11-18T14:36:37;1.73;;;1.10;;
13720;SDS011;6932;51.438;5.470;2023-11-18T14:39:03;1.00;;;0.83;;
13720;SDS011;6932;51.438;5.470;2023-11-18T14:41:29;1.60;;;0.87;;
13720;SDS011;6932;51.438;5.470;2023-11-18T14:43:59;1.73;;;0.90;;
13720;SDS011;6932;51.438;5.470;2023-11-18T14:46:27;1.00;;;0.90;;
13720;SDS011;6932;51.438;5.470;2023-11-18T14:48:53;1.00;;;0.80;;
13720;SDS011;6932;51.438;5.470;2023-11-18T14:51:18;2.30;;;1.10;;
13720;SDS011;6932;51.438;5.470;2023-11-18T14:53:46;1.77;;;1.17;;
13720;SDS011;6932;51.438;5.470;2023-11-18T14:56:11;2.67;;;1.40;;
13720;SDS011;6932;51.438;5.470;2023-11-18T14:58:37;1.47;;;1.10;;
13720;SDS011;6932;51.438;5.470;2023-11-18T15:01:03;1.33;;;1.10;;
13720;SDS011;6932;51.438;5.470;2023-11-18T15:03:32;1.17;;;1.00;;
13720;SDS011;6932;51.438;5.470;2023-11-18T15:05:58;2.37;;;0.90;;
13720;SDS011;6932;51.438;5.470;2023-11-18T15:08:24;1.80;;;0.80;;
13720;SDS011;6932;51.438;5.470;2023-11-18T15:10:50;1.30;;;1.00;;
13720;SDS011;6932;51.438;5.470;2023-11-18T15:13:16;1.47;;;1.10;;
13720;SDS011;6932;51.438;5.470;2023-11-18T15:15:42;1.20;;;1.10;;
13720;SDS011;6932;51.438;5.470;2023-11-18T15:18:12;1.00;;;0.90;;
13720;SDS011;6932;51.438;5.470;2023-11-18T15:20:39;1.70;;;0.90;;
13720;SDS011;6932;51.438;5.470;2023-11-18T15:23:11;1.13;;;1.03;;
13720;SDS011;6932;51.438;5.470;2023-11-18T15:25:38;1.37;;;0.93;;
13720;SDS011;6932;51.438;5.470;2023-11-18T15:28:04;1.03;;;1.00;;
13720;SDS011;6932;51.438;5.470;2023-11-18T15:30:38;0.70;;;0.70;;
13720;SDS011;6932;51.438;5.470;2023-11-18T15:33:05;1.03;;;0.93;;
13720;SDS011;6932;51.438;5.470;2023-11-18T15:35:33;0.93;;;0.90;;
13720;SDS011;6932;51.438;5.470;2023-11-18T15:38:08;1.60;;;1.10;;
13720;SDS011;6932;51.438;5.470;2023-11-18T15:40:41;1.10;;;1.00;;